Time;durP1;ratioP1;P1;durP2;ratioP2;P2;SDS_P1;SDS_P2;PMS_P1;PMS_P2;Temp;Humidity;BMP_temperature;BMP_pressure;BME280_temperature;BME280_humidity;BME280_pressure;Samples;Min_cycle;Max_cycle;Signal;HPM_P1;HPM_P2
2023/07/22 00:02:15;;;;;;;;;;;;;;;;;;5092051;28;20454;-71
2023/07/22 00:04:42;;;;;;;;;;;;;;;;;;5092747;28;20077;-71
2023/07/22 00:07:09;;;;;;;;;;;;;;;;;;5089660;28;19963;-71
2023/07/22 00:09:36;;;;;;;;;;;;;;;;;;5092884;28;19963;-71
2023/07/22 00:12:03;;;;;;;;;;;;;;;;;;5092695;28;20367;-71
2023/07/22 00:14:30;;;;;;;;;;;;;;;;;;5092619;28;20038;-70
2023/07/22 00:16:57;;;;;;;;;;;;;;;;;;5093147;28;19924;-71
2023/07/22 00:19:24;;;;;;;;;;;;;;;;;;5092321;28;19970;-71
2023/07/22 00:21:52;;;;;;;;;;;;;;;;;;5092233;28;20382;-71
2023/07/22 00:24:19;;;;;;;;;;;;;;;;;;5092805;28;20027;-71
2023/07/22 00:26:45;;;;;;;;;;;;;;;;;;5090951;28;19928;-71
2023/07/22 00:29:12;;;;;;;;;;;;;;;;;;5092788;28;19928;-71
2023/07/22 00:31:41;;;;;;;;;;;;;;;;;;5090861;28;19930;-71
2023/07/22 00:34:09;;;;;;;;;;;;;;;;;;5092886;28;19924;-71
2023/07/22 00:36:37;;;;;;;;;;;;;;;;;;5092038;28;19939;-71
2023/07/22 00:39:05;;;;;;;;;;;;;;;;;;5092638;28;20379;-71
2023/07/22 00:41:32;;;;;;;;;;;;;;;;;;5092364;28;19924;-70
2023/07/22 00:43:59;;;;;;;;;;;;;;;;;;5092123;28;20014;-71
2023/07/22 00:46:26;;;;;;;;;;;;;;;;;;5092366;28;20395;-71
2023/07/22 00:48:53;;;;;;;;;;;;;;;;;;5092392;28;20371;-71
2023/07/22 00:51:22;;;;;;;;;;;;;;;;;;5092437;28;20390;-71
2023/07/22 00:53:49;;;;;;;;;;;;;;;;;;5091347;28;19928;-70
2023/07/22 00:56:16;;;;;;;;;;;;;;;;;;5092349;28;20011;-72
2023/07/22 00:58:43;;;;;;;;;;;;;;;;;;5092512;28;19964;-71
2023/07/22 01:01:10;;;;;;;;;;;;;;;;;;5092334;28;20465;-71
2023/07/22 01:03:36;;;;;;;;;;;;;;;;;;5092338;28;20368;-71
2023/07/22 01:06:03;;;;;;;;;;;;;;;;;;5092586;28;20034;-71
2023/07/22 01:08:30;;;;;;;;;;;;;;;;;;5090580;28;19959;-71
2023/07/22 01:10:58;;;;;;;;;;;;;;;;;;5091216;28;20026;-71
2023/07/22 01:13:25;;;;;;;;;;;;;;;;;;5092329;28;20321;-72
2023/07/22 01:15:52;;;;;;;;;;;;;;;;;;5092302;28;19963;-71
2023/07/22 01:18:19;;;;;;;;;;;;;;;;;;5092579;28;19924;-72
2023/07/22 01:20:46;;;;;;;;;;;;;;;;;;5092561;28;19924;-71
2023/07/22 01:23:13;;;;;;;;;;;;;;;;;;5091892;28;19924;-72
2023/07/22 01:25:40;;;;;;;;;;;;;;;;;;5092085;28;20015;-71
2023/07/22 01:28:07;;;;;;;;;;;;;;;;;;5076553;28;20302;-72
2023/07/22 01:30:34;;;;;;;;;;;;;;;;;;5071811;28;20029;-71
2023/07/22 01:33:01;;;;;;;;;;;;;;;;;;5079533;28;19962;-71
2023/07/22 01:35:28;;;;;;;;;;;;;;;;;;5090308;28;20019;-71
2023/07/22 01:37:55;;;;;;;;;;;;;;;;;;5095123;28;20460;-71
2023/07/22 01:40:23;;;;;;;;;;;;;;;;;;5093669;28;20413;-71
2023/07/22 01:42:50;;;;;;;;;;;;;;;;;;5094794;28;19924;-71
2023/07/22 01:45:17;;;;;;;;;;;;;;;;;;5095096;28;19997;-71
2023/07/22 01:47:44;;;;;;;;;;;;;;;;;;5095792;28;20251;-71
2023/07/22 01:50:11;;;;;;;;;;;;;;;;;;5095686;28;19924;-71
2023/07/22 01:52:38;;;;;;;;;;;;;;;;;;5095421;28;19926;-72
2023/07/22 01:55:06;;;;;;;;;;;;;;;;;;5093427;28;20477;-72
2023/07/22 01:57:32;;;;;;;;;;;;;;;;;;5095230;28;20014;-71
2023/07/22 01:59:59;;;;;;;;;;;;;;;;;;5094585;28;20014;-71
2023/07/22 02:02:26;;;;;;;;;;;;;;;;;;5091053;28;20473;-71
2023/07/22 02:04:53;;;;;;;;;;;;;;;;;;5095866;28;19954;-71
2023/07/22 02:07:20;;;;;;;;;;;;;;;;;;5095151;28;20075;-71
2023/07/22 02:09:47;;;;;;;;;;;;;;;;;;5095194;28;20460;-71
2023/07/22 02:12:14;;;;;;;;;;;;;;;;;;5095431;28;19973;-71
2023/07/22 02:14:41;;;;;;;;;;;;;;;;;;5094776;28;20011;-71
2023/07/22 02:17:10;;;;;;;;;;;;;;;;;;5094837;28;19963;-71
2023/07/22 02:19:37;;;;;;;;;;;;;;;;;;5075196;28;19935;-72
2023/07/22 02:22:04;;;;;;;;;;;;;;;;;;5074613;28;19936;-71
2023/07/22 02:24:31;;;;;;;;;;;;;;;;;;5074941;28;19925;-72
2023/07/22 02:26:58;;;;;;;;;;;;;;;;;;5074748;28;19999;-71
2023/07/22 02:29:25;;;;;;;;;;;;;;;;;;5074658;28;20338;-71
2023/07/22 02:31:52;;;;;;;;;;;;;;;;;;5082679;28;20003;-71
2023/07/22 02:34:19;;;;;;;;;;;;;;;;;;5094012;28;19924;-71
2023/07/22 02:36:46;;;;;;;;;;;;;;;;;;5095114;28;20002;-71
2023/07/22 02:39:13;;;;;;;;;;;;;;;;;;5094947;28;20299;-72
2023/07/22 02:41:40;;;;;;;;;;;;;;;;;;5094161;28;19982;-74
2023/07/22 02:44:08;;;;;;;;;;;;;;;;;;5092658;28;20011;-71
2023/07/22 02:46:35;;;;;;;;;;;;;;;;;;5094476;28;19975;-71
2023/07/22 02:49:02;;;;;;;;;;;;;;;;;;5094292;28;19971;-68
2023/07/22 02:51:29;;;;;;;;;;;;;;;;;;5093330;28;19931;-72
2023/07/22 02:53:56;;;;;;;;;;;;;;;;;;5094110;28;19924;-72
2023/07/22 02:56:23;;;;;;;;;;;;;;;;;;5094189;28;20022;-72
2023/07/22 02:58:50;;;;;;;;;;;;;;;;;;5094162;28;19924;-72
2023/07/22 03:01:18;;;;;;;;;;;;;;;;;;5093950;28;19932;-71
2023/07/22 03:03:44;;;;;;;;;;;;;;;;;;5094141;28;19951;-71
2023/07/22 03:06:11;;;;;;;;;;;;;;;;;;5093987;28;19932;-72
2023/07/22 03:08:38;;;;;;;;;;;;;;;;;;5090295;28;19929;-72
2023/07/22 03:11:06;;;;;;;;;;;;;;;;;;5090655;28;20016;-71
2023/07/22 03:13:34;;;;;;;;;;;;;;;;;;5094067;28;19924;-71
2023/07/22 03:16:03;;;;;;;;;;;;;;;;;;5093900;28;19930;-72
2023/07/22 03:18:30;;;;;;;;;;;;;;;;;;5094046;28;20355;-73
2023/07/22 03:20:57;;;;;;;;;;;;;;;;;;5093673;28;20293;-72
2023/07/22 03:23:24;;;;;;;;;;;;;;;;;;5091482;28;20421;-72
2023/07/22 03:25:51;;;;;;;;;;;;;;;;;;5092119;28;20353;-71
2023/07/22 03:28:18;;;;;;;;;;;;;;;;;;5092412;28;20294;-72
2023/07/22 03:30:45;;;;;;;;;;;;;;;;;;5093328;28;20387;-72
2023/07/22 03:33:12;;;;;;;;;;;;;;;;;;5093376;28;20379;-71
2023/07/22 03:35:39;;;;;;;;;;;;;;;;;;5087899;28;20375;-71
2023/07/22 03:38:06;;;;;;;;;;;;;;;;;;5082079;28;20470;-71
2023/07/22 03:40:33;;;;;;;;;;;;;;;;;;5093375;28;19924;-71
2023/07/22 03:43:00;;;;;;;;;;;;;;;;;;5083203;28;20015;-72
2023/07/22 03:45:27;;;;;;;;;;;;;;;;;;5093465;28;19928;-71
2023/07/22 03:47:55;;;;;;;;;;;;;;;;;;5093598;28;19924;-71
2023/07/22 03:50:22;;;;;;;;;;;;;;;;;;5093381;28;19924;-72
2023/07/22 03:52:49;;;;;;;;;;;;;;;;;;5092955;28;20411;-72
2023/07/22 03:55:15;;;;;;;;;;;;;;;;;;5076101;28;20031;-71
2023/07/22 03:57:42;;;;;;;;;;;;;;;;;;5072229;28;20011;-72
2023/07/22 04:00:10;;;;;;;;;;;;;;;;;;5080025;28;19970;-72
2023/07/22 04:02:37;;;;;;;;;;;;;;;;;;5093494;28;19931;-72
2023/07/22 04:05:04;;;;;;;;;;;;;;;;;;5092375;28;19924;-72
2023/07/22 04:07:31;;;;;;;;;;;;;;;;;;5091634;28;20032;-72
2023/07/22 04:09:58;;;;;;;;;;;;;;;;;;5093097;28;20011;-71
2023/07/22 04:12:25;;;;;;;;;;;;;;;;;;5092720;28;20383;-71
2023/07/22 04:14:52;;;;;;;;;;;;;;;;;;5092885;28;20498;-71
2023/07/22 04:17:19;;;;;;;;;;;;;;;;;;5092156;28;20327;-71
2023/07/22 04:19:46;;;;;;;;;;;;;;;;;;5092791;28;19928;-71
2023/07/22 04:22:13;;;;;;;;;;;;;;;;;;5092887;28;19924;-72
2023/07/22 04:24:40;;;;;;;;;;;;;;;;;;5092748;28;19931;-71
2023/07/22 04:27:07;;;;;;;;;;;;;;;;;;5092786;28;19971;-72
2023/07/22 04:29:34;;;;;;;;;;;;;;;;;;5092496;28;19931;-71
2023/07/22 04:32:01;;;;;;;;;;;;;;;;;;5092896;28;20374;-71
2023/07/22 04:34:28;;;;;;;;;;;;;;;;;;5092036;28;19924;-71
2023/07/22 04:36:55;;;;;;;;;;;;;;;;;;5090671;28;19924;-71
2023/07/22 04:39:23;;;;;;;;;;;;;;;;;;5093031;28;20007;-72
2023/07/22 04:41:50;;;;;;;;;;;;;;;;;;5092887;28;19924;-71
2023/07/22 04:44:17;;;;;;;;;;;;;;;;;;5090741;28;19970;-72
2023/07/22 04:46:44;;;;;;;;;;;;;;;;;;5092426;28;20327;-71
2023/07/22 04:49:11;;;;;;;;;;;;;;;;;;5092980;28;20015;-71
2023/07/22 04:51:38;;;;;;;;;;;;;;;;;;5081277;28;19974;-72
2023/07/22 04:54:05;;;;;;;;;;;;;;;;;;5077508;28;20321;-71
2023/07/22 04:56:32;;;;;;;;;;;;;;;;;;5090970;28;19998;-71
2023/07/22 04:58:59;;;;;;;;;;;;;;;;;;5092235;28;19931;-71
2023/07/22 05:01:26;;;;;;;;;;;;;;;;;;5092367;28;20314;-72
2023/07/22 05:03:54;;;;;;;;;;;;;;;;;;5090763;28;19946;-71
2023/07/22 05:06:21;;;;;;;;;;;;;;;;;;5091679;28;19928;-71
2023/07/22 05:08:48;;;;;;;;;;;;;;;;;;5092690;28;19924;-71
2023/07/22 05:11:15;;;;;;;;;;;;;;;;;;5094591;28;20015;-73
2023/07/22 05:13:42;;;;;;;;;;;;;;;;;;5094556;28;19946;-71
2023/07/22 05:16:09;;;;;;;;;;;;;;;;;;5095948;28;20378;-71
2023/07/22 05:18:38;;;;;;;;;;;;;;;;;;5094740;28;19966;-71
2023/07/22 05:21:05;;;;;;;;;;;;;;;;;;5095799;28;19932;-71
2023/07/22 05:23:31;;;;;;;;;;;;;;;;;;5095739;28;20387;-71
2023/07/22 05:25:58;;;;;;;;;;;;;;;;;;5081961;28;20011;-71
2023/07/22 05:28:25;;;;;;;;;;;;;;;;;;5075596;28;19964;-71
2023/07/22 05:30:52;;;;;;;;;;;;;;;;;;5084518;28;19976;-71
2023/07/22 05:33:19;;;;;;;;;;;;;;;;;;5095917;28;19982;-71
2023/07/22 05:35:46;;;;;;;;;;;;;;;;;;5093822;28;20325;-71
2023/07/22 05:38:13;;;;;;;;;;;;;;;;;;5094439;28;19931;-69
2023/07/22 05:40:40;;;;;;;;;;;;;;;;;;5092754;28;20023;-70
2023/07/22 05:43:07;;;;;;;;;;;;;;;;;;5089558;28;19993;-70
2023/07/22 05:45:34;;;;;;;;;;;;;;;;;;5075364;28;19925;-71
2023/07/22 05:48:01;;;;;;;;;;;;;;;;;;5086776;28;19928;-71
2023/07/22 05:50:28;;;;;;;;;;;;;;;;;;5095988;28;19931;-70
2023/07/22 05:52:55;;;;;;;;;;;;;;;;;;5095667;28;19963;-69
2023/07/22 05:55:22;;;;;;;;;;;;;;;;;;5093641;28;20050;-69
2023/07/22 05:57:49;;;;;;;;;;;;;;;;;;5094931;28;19985;-69
2023/07/22 06:00:17;;;;;;;;;;;;;;;;;;5092508;28;19967;-69
2023/07/22 06:02:44;;;;;;;;;;;;;;;;;;5093638;28;19977;-69
2023/07/22 06:05:11;;;;;;;;;;;;;;;;;;5095245;28;19931;-70
2023/07/22 06:07:38;;;;;;;;;;;;;;;;;;5095269;28;20018;-69
2023/07/22 06:10:05;;;;;;;;;;;;;;;;;;5094850;28;19959;-69
2023/07/22 06:12:32;;;;;;;;;;;;;;;;;;5093376;28;20412;-68
2023/07/22 06:14:59;;;;;;;;;;;;;;;;;;5077923;28;20039;-71
2023/07/22 06:17:26;;;;;;;;;;;;;;;;;;5092966;28;20008;-71
2023/07/22 06:19:53;;;;;;;;;;;;;;;;;;5091327;28;20019;-70
2023/07/22 06:22:20;;;;;;;;;;;;;;;;;;5093084;28;20190;-70
2023/07/22 06:24:47;;;;;;;;;;;;;;;;;;5093865;28;19931;-71
2023/07/22 06:27:14;;;;;;;;;;;;;;;;;;5094895;28;20015;-70
2023/07/22 06:29:41;;;;;;;;;;;;;;;;;;5094972;28;20026;-70
2023/07/22 06:32:08;;;;;;;;;;;;;;;;;;5095332;28;19924;-70
2023/07/22 06:34:35;;;;;;;;;;;;;;;;;;5093824;28;20332;-70
2023/07/22 06:37:02;;;;;;;;;;;;;;;;;;5094981;28;19928;-70
2023/07/22 06:39:29;;;;;;;;;;;;;;;;;;5094539;28;19932;-70
2023/07/22 06:41:56;;;;;;;;;;;;;;;;;;5094465;28;20023;-70
2023/07/22 06:44:23;;;;;;;;;;;;;;;;;;5093959;28;19931;-71
2023/07/22 06:46:51;;;;;;;;;;;;;;;;;;5093889;28;20018;-70
2023/07/22 06:49:18;;;;;;;;;;;;;;;;;;5093454;28;19934;-70
2023/07/22 06:51:45;;;;;;;;;;;;;;;;;;5094138;28;20027;-71
2023/07/22 06:54:11;;;;;;;;;;;;;;;;;;5094237;28;20371;-70
2023/07/22 06:56:38;;;;;;;;;;;;;;;;;;5094170;28;19970;-70
2023/07/22 06:59:05;;;;;;;;;;;;;;;;;;5092829;28;19930;-70
2023/07/22 07:01:33;;;;;;;;;;;;;;;;;;5092820;28;20326;-71
2023/07/22 07:03:59;;;;;;;;;;;;;;;;;;5094285;28;19928;-70
2023/07/22 07:06:26;;;;;;;;;;;;;;;;;;5093343;28;20018;-70
2023/07/22 07:08:54;;;;;;;;;;;;;;;;;;5093656;28;19924;-70
2023/07/22 07:11:22;;;;;;;;;;;;;;;;;;5094073;28;20286;-71
2023/07/22 07:13:48;;;;;;;;;;;;;;;;;;5092356;28;20226;-70
2023/07/22 07:16:15;;;;;;;;;;;;;;;;;;5091897;28;20031;-70
2023/07/22 07:18:43;;;;;;;;;;;;;;;;;;5093755;28;20011;-70
2023/07/22 07:21:10;;;;;;;;;;;;;;;;;;5094148;28;19971;-71
2023/07/22 07:23:37;;;;;;;;;;;;;;;;;;5090183;28;20018;-70
2023/07/22 07:26:04;;;;;;;;;;;;;;;;;;5073826;28;20333;-70
2023/07/22 07:28:31;;;;;;;;;;;;;;;;;;5073320;28;20020;-72
2023/07/22 07:30:58;;;;;;;;;;;;;;;;;;5082655;28;20015;-70
2023/07/22 07:33:25;;;;;;;;;;;;;;;;;;5093505;28;20399;-69
2023/07/22 07:35:52;;;;;;;;;;;;;;;;;;5093444;28;19923;-71
2023/07/22 07:38:19;;;;;;;;;;;;;;;;;;5093272;28;20283;-70
2023/07/22 07:40:46;;;;;;;;;;;;;;;;;;5092833;28;20335;-70
2023/07/22 07:43:13;;;;;;;;;;;;;;;;;;5093204;28;20309;-70
2023/07/22 07:45:40;;;;;;;;;;;;;;;;;;5092774;28;20383;-69
2023/07/22 07:48:07;;;;;;;;;;;;;;;;;;5091115;28;20382;-70
2023/07/22 07:50:34;;;;;;;;;;;;;;;;;;5093019;28;19970;-70
2023/07/22 07:53:01;;;;;;;;;;;;;;;;;;5092875;28;19967;-69
2023/07/22 07:55:28;;;;;;;;;;;;;;;;;;5088868;28;20015;-70
2023/07/22 07:57:55;;;;;;;;;;;;;;;;;;5090354;28;20011;-69
2023/07/22 08:00:22;;;;;;;;;;;;;;;;;;5092488;28;20466;-72
2023/07/22 08:02:49;;;;;;;;;;;;;;;;;;5090685;28;19963;-71
2023/07/22 08:05:16;;;;;;;;;;;;;;;;;;5092893;28;19932;-70
2023/07/22 08:07:43;;;;;;;;;;;;;;;;;;5092990;28;19931;-70
2023/07/22 08:10:11;;;;;;;;;;;;;;;;;;5092983;28;19985;-70
2023/07/22 08:12:38;;;;;;;;;;;;;;;;;;5093010;28;19978;-71
2023/07/22 08:15:05;;;;;;;;;;;;;;;;;;5092185;28;19953;-71
2023/07/22 08:17:32;;;;;;;;;;;;;;;;;;5093455;28;20442;-71
2023/07/22 08:19:59;;;;;;;;;;;;;;;;;;5092621;28;20280;-71
2023/07/22 08:22:26;;;;;;;;;;;;;;;;;;5092739;28;19975;-71
2023/07/22 08:24:53;;;;;;;;;;;;;;;;;;5093229;28;19998;-71
2023/07/22 08:27:20;;;;;;;;;;;;;;;;;;5092961;28;19928;-71
2023/07/22 08:29:47;;;;;;;;;;;;;;;;;;5086711;28;19947;-74
2023/07/22 08:32:14;;;;;;;;;;;;;;;;;;5081861;28;20019;-71
2023/07/22 08:34:41;;;;;;;;;;;;;;;;;;5086835;28;19925;-71
2023/07/22 08:37:08;;;;;;;;;;;;;;;;;;5072736;28;20007;-72
2023/07/22 08:39:35;;;;;;;;;;;;;;;;;;5072135;28;20310;-70
2023/07/22 08:42:02;;;;;;;;;;;;;;;;;;5072098;28;20016;-72
2023/07/22 08:44:29;;;;;;;;;;;;;;;;;;5093599;28;20011;-72
2023/07/22 08:46:56;;;;;;;;;;;;;;;;;;5086089;28;20379;-72
2023/07/22 08:49:23;;;;;;;;;;;;;;;;;;5087096;28;19925;-72
2023/07/22 08:51:50;;;;;;;;;;;;;;;;;;5076030;28;20026;-72
2023/07/22 08:54:17;;;;;;;;;;;;;;;;;;5075866;28;19975;-72
2023/07/22 08:56:44;;;;;;;;;;;;;;;;;;5075943;28;20430;-72
2023/07/22 08:59:11;;;;;;;;;;;;;;;;;;5075724;28;19971;-72
2023/07/22 09:01:39;;;;;;;;;;;;;;;;;;5075368;28;19983;-72
2023/07/22 09:04:06;;;;;;;;;;;;;;;;;;5075306;28;20468;-72
2023/07/22 09:06:33;;;;;;;;;;;;;;;;;;5086481;28;20384;-72
2023/07/22 09:09:00;;;;;;;;;;;;;;;;;;5095699;28;19928;-72
2023/07/22 09:11:27;;;;;;;;;;;;;;;;;;5095299;28;19924;-72
2023/07/22 09:13:54;;;;;;;;;;;;;;;;;;5095564;28;19939;-72
2023/07/22 09:16:21;;;;;;;;;;;;;;;;;;5095773;28;19931;-71
2023/07/22 09:18:48;;;;;;;;;;;;;;;;;;5095385;28;20431;-72
2023/07/22 09:21:15;;;;;;;;;;;;;;;;;;5095908;28;19924;-72
2023/07/22 09:23:42;;;;;;;;;;;;;;;;;;5091838;28;20016;-72
2023/07/22 09:26:09;;;;;;;;;;;;;;;;;;5095588;28;19930;-72
2023/07/22 09:28:36;;;;;;;;;;;;;;;;;;5095538;28;19963;-73
2023/07/22 09:31:03;;;;;;;;;;;;;;;;;;5095317;28;20018;-72
2023/07/22 09:33:30;;;;;;;;;;;;;;;;;;5095644;28;20394;-71
2023/07/22 09:35:57;;;;;;;;;;;;;;;;;;5095647;28;20007;-72
2023/07/22 09:38:25;;;;;;;;;;;;;;;;;;5077802;28;20020;-72
2023/07/22 09:40:52;;;;;;;;;;;;;;;;;;5079475;28;19932;-72
2023/07/22 09:43:19;;;;;;;;;;;;;;;;;;5092219;28;19935;-72
2023/07/22 09:45:45;;;;;;;;;;;;;;;;;;5095081;28;19953;-72
2023/07/22 09:48:12;;;;;;;;;;;;;;;;;;5079436;28;20439;-74
2023/07/22 09:50:39;;;;;;;;;;;;;;;;;;5075208;28;20011;-71
2023/07/22 09:53:06;;;;;;;;;;;;;;;;;;5075441;28;19924;-72
2023/07/22 09:55:33;;;;;;;;;;;;;;;;;;5074045;28;19947;-72
2023/07/22 09:58:01;;;;;;;;;;;;;;;;;;5075423;28;19933;-72
2023/07/22 10:00:28;;;;;;;;;;;;;;;;;;5091692;28;19932;-72
2023/07/22 10:02:55;;;;;;;;;;;;;;;;;;5095103;28;19924;-73
2023/07/22 10:05:23;;;;;;;;;;;;;;;;;;5095039;28;19984;-72
2023/07/22 10:07:50;;;;;;;;;;;;;;;;;;5095116;28;19924;-72
2023/07/22 10:10:17;;;;;;;;;;;;;;;;;;5094888;28;20030;-72
2023/07/22 10:12:44;;;;;;;;;;;;;;;;;;5095039;28;19959;-72
2023/07/22 10:15:11;;;;;;;;;;;;;;;;;;5078203;28;19979;-72
2023/07/22 10:17:38;;;;;;;;;;;;;;;;;;5074985;28;20014;-72
2023/07/22 10:20:07;;;;;;;;;;;;;;;;;;5074567;28;19924;-72
2023/07/22 10:22:34;;;;;;;;;;;;;;;;;;5074880;28;19936;-72
2023/07/22 10:25:01;;;;;;;;;;;;;;;;;;5093299;28;20015;-72
2023/07/22 10:27:28;;;;;;;;;;;;;;;;;;5094517;28;19932;-70
2023/07/22 10:29:55;;;;;;;;;;;;;;;;;;5092651;28;20018;-70
2023/07/22 10:32:22;;;;;;;;;;;;;;;;;;5090867;28;19942;-70
2023/07/22 10:34:49;;;;;;;;;;;;;;;;;;5094645;28;19979;-71
2023/07/22 10:37:16;;;;;;;;;;;;;;;;;;5092717;28;20072;-71
2023/07/22 10:39:43;;;;;;;;;;;;;;;;;;5094092;28;19978;-70
2023/07/22 10:42:10;;;;;;;;;;;;;;;;;;5093526;28;19959;-70
2023/07/22 10:44:37;;;;;;;;;;;;;;;;;;5093526;28;20018;-71
2023/07/22 10:47:04;;;;;;;;;;;;;;;;;;5092585;28;19967;-71
2023/07/22 10:49:31;;;;;;;;;;;;;;;;;;5093185;28;20011;-71
2023/07/22 10:51:58;;;;;;;;;;;;;;;;;;5093514;28;20391;-70
2023/07/22 10:54:25;;;;;;;;;;;;;;;;;;5093464;28;20015;-70
2023/07/22 10:56:52;;;;;;;;;;;;;;;;;;5093538;28;19928;-70
2023/07/22 10:59:19;;;;;;;;;;;;;;;;;;5091460;28;19924;-70
2023/07/22 11:01:46;;;;;;;;;;;;;;;;;;5093674;28;19924;-70
2023/07/22 11:04:13;;;;;;;;;;;;;;;;;;5094322;28;19924;-71
2023/07/22 11:06:40;;;;;;;;;;;;;;;;;;5092972;28;19924;-70
2023/07/22 11:09:07;;;;;;;;;;;;;;;;;;5093272;28;19959;-70
2023/07/22 11:11:34;;;;;;;;;;;;;;;;;;5093811;28;20307;-70
2023/07/22 11:14:01;;;;;;;;;;;;;;;;;;5093988;28;19928;-70
2023/07/22 11:16:28;;;;;;;;;;;;;;;;;;5093910;28;19924;-70
2023/07/22 11:18:55;;;;;;;;;;;;;;;;;;5093567;28;19924;-70
2023/07/22 11:21:22;;;;;;;;;;;;;;;;;;5092027;28;20019;-70
2023/07/22 11:23:49;;;;;;;;;;;;;;;;;;5072499;28;20015;-70
2023/07/22 11:26:17;;;;;;;;;;;;;;;;;;5079197;28;19924;-70
2023/07/22 11:28:44;;;;;;;;;;;;;;;;;;5091768;28;20012;-71
2023/07/22 11:31:11;;;;;;;;;;;;;;;;;;5091969;28;20321;-70
2023/07/22 11:33:39;;;;;;;;;;;;;;;;;;5093226;28;20281;-70
2023/07/22 11:36:06;;;;;;;;;;;;;;;;;;5092846;28;19931;-70
2023/07/22 11:38:34;;;;;;;;;;;;;;;;;;5090491;28;19993;-69
2023/07/22 11:41:01;;;;;;;;;;;;;;;;;;5092512;28;20410;-70
2023/07/22 11:43:28;;;;;;;;;;;;;;;;;;5092773;28;20035;-70
2023/07/22 11:45:55;;;;;;;;;;;;;;;;;;5092601;28;19974;-70
2023/07/22 11:48:22;;;;;;;;;;;;;;;;;;5082401;28;20027;-70
2023/07/22 11:50:49;;;;;;;;;;;;;;;;;;5072876;28;19936;-70
2023/07/22 11:53:16;;;;;;;;;;;;;;;;;;5072924;28;19924;-70
2023/07/22 11:55:42;;;;;;;;;;;;;;;;;;5076378;28;19924;-71
2023/07/22 11:58:09;;;;;;;;;;;;;;;;;;5092616;28;20022;-70
2023/07/22 12:00:36;;;;;;;;;;;;;;;;;;5092525;28;19924;-70
2023/07/22 12:03:03;;;;;;;;;;;;;;;;;;5092516;28;20011;-71
2023/07/22 12:05:30;;;;;;;;;;;;;;;;;;5092626;28;19925;-71
2023/07/22 12:07:57;;;;;;;;;;;;;;;;;;5092269;28;20465;-70
2023/07/22 12:10:24;;;;;;;;;;;;;;;;;;5090796;28;19925;-71
2023/07/22 12:12:53;;;;;;;;;;;;;;;;;;5091068;28;20109;-70
2023/07/22 12:15:20;;;;;;;;;;;;;;;;;;5092217;28;19924;-70
2023/07/22 12:17:47;;;;;;;;;;;;;;;;;;5091727;28;20008;-70
2023/07/22 12:20:14;;;;;;;;;;;;;;;;;;5092298;28;19998;-70
2023/07/22 12:22:41;;;;;;;;;;;;;;;;;;5092006;28;19944;-70
2023/07/22 12:25:08;;;;;;;;;;;;;;;;;;5092523;28;19948;-72
2023/07/22 12:27:35;;;;;;;;;;;;;;;;;;5092581;28;20015;-71
2023/07/22 12:30:03;;;;;;;;;;;;;;;;;;5091340;28;19974;-70
2023/07/22 12:32:30;;;;;;;;;;;;;;;;;;5092169;28;19931;-71
2023/07/22 12:34:57;;;;;;;;;;;;;;;;;;5092268;28;20016;-70
2023/07/22 12:37:25;;;;;;;;;;;;;;;;;;5091740;28;20022;-71
2023/07/22 12:39:52;;;;;;;;;;;;;;;;;;5092025;28;19928;-70
2023/07/22 12:42:19;;;;;;;;;;;;;;;;;;5092569;28;20030;-71
2023/07/22 12:44:46;;;;;;;;;;;;;;;;;;5092217;28;20462;-71
2023/07/22 12:47:13;;;;;;;;;;;;;;;;;;5091311;28;19924;-71
2023/07/22 12:49:40;;;;;;;;;;;;;;;;;;5092538;28;20257;-70
2023/07/22 12:52:09;;;;;;;;;;;;;;;;;;5091712;28;20010;-71
2023/07/22 12:54:36;;;;;;;;;;;;;;;;;;5092318;28;19924;-71
2023/07/22 12:57:03;;;;;;;;;;;;;;;;;;5092186;28;19924;-71
2023/07/22 12:59:29;;;;;;;;;;;;;;;;;;5092471;28;19977;-71
2023/07/22 13:01:57;;;;;;;;;;;;;;;;;;5091637;28;19969;-71
2023/07/22 13:04:24;;;;;;;;;;;;;;;;;;5089456;28;20329;-71
2023/07/22 13:06:52;;;;;;;;;;;;;;;;;;5091973;28;19967;-70
2023/07/22 13:09:19;;;;;;;;;;;;;;;;;;5092108;28;19935;-70
2023/07/22 13:11:46;;;;;;;;;;;;;;;;;;5091809;28;20006;-70
2023/07/22 13:14:13;;;;;;;;;;;;;;;;;;5090559;28;19928;-67
2023/07/22 13:16:40;;;;;;;;;;;;;;;;;;5091378;28;19966;-70
2023/07/22 13:19:07;;;;;;;;;;;;;;;;;;5090461;28;19967;-70
2023/07/22 13:21:33;;;;;;;;;;;;;;;;;;5089826;28;19967;-70
2023/07/22 13:24:00;;;;;;;;;;;;;;;;;;5090194;28;19963;-71
2023/07/22 13:26:27;;;;;;;;;;;;;;;;;;5089882;28;20421;-71
2023/07/22 13:28:54;;;;;;;;;;;;;;;;;;5093946;28;19924;-71
2023/07/22 13:31:21;;;;;;;;;;;;;;;;;;5087413;28;19967;-71
2023/07/22 13:33:48;;;;;;;;;;;;;;;;;;5075147;28;19936;-72
2023/07/22 13:36:15;;;;;;;;;;;;;;;;;;5077482;28;19924;-72
2023/07/22 13:38:42;;;;;;;;;;;;;;;;;;5077197;28;19978;-71
2023/07/22 13:41:09;;;;;;;;;;;;;;;;;;5093069;28;19970;-71
2023/07/22 13:43:37;;;;;;;;;;;;;;;;;;5093553;28;19970;-71
2023/07/22 13:46:04;;;;;;;;;;;;;;;;;;5090766;28;20386;-71
2023/07/22 13:48:30;;;;;;;;;;;;;;;;;;5095336;28;20581;-72
2023/07/22 13:50:57;;;;;;;;;;;;;;;;;;5095389;28;20355;-72
2023/07/22 13:53:24;;;;;;;;;;;;;;;;;;5095144;28;19962;-71
2023/07/22 13:55:51;;;;;;;;;;;;;;;;;;5094252;28;20030;-71
2023/07/22 13:58:18;;;;;;;;;;;;;;;;;;5095065;28;20027;-71
2023/07/22 14:00:45;;;;;;;;;;;;;;;;;;5094714;28;19976;-71
2023/07/22 14:03:12;;;;;;;;;;;;;;;;;;5094607;28;19959;-71
2023/07/22 14:05:39;;;;;;;;;;;;;;;;;;5094713;28;19962;-71
2023/07/22 14:08:06;;;;;;;;;;;;;;;;;;5094627;28;20018;-71
2023/07/22 14:10:33;;;;;;;;;;;;;;;;;;5094424;28;19959;-71
2023/07/22 14:13:00;;;;;;;;;;;;;;;;;;5094220;28;19931;-71
2023/07/22 14:15:27;;;;;;;;;;;;;;;;;;5095133;28;20361;-72
2023/07/22 14:17:54;;;;;;;;;;;;;;;;;;5094936;28;20350;-71
2023/07/22 14:20:22;;;;;;;;;;;;;;;;;;5094966;28;19924;-71
2023/07/22 14:22:49;;;;;;;;;;;;;;;;;;5095010;28;19977;-71
2023/07/22 14:25:16;;;;;;;;;;;;;;;;;;5094396;28;19953;-72
2023/07/22 14:27:43;;;;;;;;;;;;;;;;;;5094609;28;20016;-71
2023/07/22 14:30:10;;;;;;;;;;;;;;;;;;5078398;28;19979;-72
2023/07/22 14:32:37;;;;;;;;;;;;;;;;;;5073927;28;19925;-72
2023/07/22 14:35:04;;;;;;;;;;;;;;;;;;5085153;28;19971;-72
2023/07/22 14:37:31;;;;;;;;;;;;;;;;;;5093739;28;19924;-72
2023/07/22 14:39:58;;;;;;;;;;;;;;;;;;5093737;28;20010;-72
2023/07/22 14:42:25;;;;;;;;;;;;;;;;;;5094218;28;20007;-72
2023/07/22 14:44:52;;;;;;;;;;;;;;;;;;5094195;28;19948;-72
2023/07/22 14:47:19;;;;;;;;;;;;;;;;;;5093692;28;20019;-72
2023/07/22 14:49:46;;;;;;;;;;;;;;;;;;5094214;28;20366;-72
2023/07/22 14:52:13;;;;;;;;;;;;;;;;;;5092238;28;19928;-72
2023/07/22 14:54:40;;;;;;;;;;;;;;;;;;5093662;28;20021;-71
2023/07/22 14:57:07;;;;;;;;;;;;;;;;;;5093622;28;20458;-72
2023/07/22 14:59:34;;;;;;;;;;;;;;;;;;5093846;28;20367;-71
2023/07/22 15:02:01;;;;;;;;;;;;;;;;;;5093479;28;20022;-71
2023/07/22 15:04:28;;;;;;;;;;;;;;;;;;5074967;28;20039;-72
2023/07/22 15:06:55;;;;;;;;;;;;;;;;;;5073778;28;20019;-71
2023/07/22 15:09:22;;;;;;;;;;;;;;;;;;5073191;28;19990;-72
2023/07/22 15:11:49;;;;;;;;;;;;;;;;;;5073039;28;20023;-71
2023/07/22 15:14:16;;;;;;;;;;;;;;;;;;5075864;28;20274;-71
2023/07/22 15:16:43;;;;;;;;;;;;;;;;;;5092010;28;19990;-70
2023/07/22 15:19:10;;;;;;;;;;;;;;;;;;5093549;28;19923;-71
2023/07/22 15:21:37;;;;;;;;;;;;;;;;;;5092981;28;19963;-71
2023/07/22 15:24:05;;;;;;;;;;;;;;;;;;5093812;28;19924;-72
2023/07/22 15:26:31;;;;;;;;;;;;;;;;;;5091699;28;20243;-72
2023/07/22 15:28:58;;;;;;;;;;;;;;;;;;5090713;28;20011;-72
2023/07/22 15:31:25;;;;;;;;;;;;;;;;;;5092931;28;19928;-71
2023/07/22 15:33:52;;;;;;;;;;;;;;;;;;5090465;28;20019;-72
2023/07/22 15:36:19;;;;;;;;;;;;;;;;;;5092468;28;19931;-71
2023/07/22 15:38:46;;;;;;;;;;;;;;;;;;5093322;28;20352;-71
2023/07/22 15:41:13;;;;;;;;;;;;;;;;;;5092225;28;20329;-72
2023/07/22 15:43:40;;;;;;;;;;;;;;;;;;5091456;28;19963;-71
2023/07/22 15:46:07;;;;;;;;;;;;;;;;;;5092837;28;20342;-71
2023/07/22 15:48:34;;;;;;;;;;;;;;;;;;5093019;28;20258;-71
2023/07/22 15:51:01;;;;;;;;;;;;;;;;;;5092963;28;19928;-71
2023/07/22 15:53:29;;;;;;;;;;;;;;;;;;5089998;28;20016;-71
2023/07/22 15:55:56;;;;;;;;;;;;;;;;;;5072477;28;19931;-72
2023/07/22 15:58:22;;;;;;;;;;;;;;;;;;5072484;28;19928;-72
2023/07/22 16:00:49;;;;;;;;;;;;;;;;;;5072345;28;20375;-72
2023/07/22 16:03:16;;;;;;;;;;;;;;;;;;5084700;28;20331;-71
2023/07/22 16:05:43;;;;;;;;;;;;;;;;;;5092526;28;19928;-71
2023/07/22 16:08:10;;;;;;;;;;;;;;;;;;5092695;28;20018;-71
2023/07/22 16:10:37;;;;;;;;;;;;;;;;;;5091153;28;19990;-71
2023/07/22 16:13:04;;;;;;;;;;;;;;;;;;5090169;28;19924;-71
2023/07/22 16:15:31;;;;;;;;;;;;;;;;;;5090761;28;20006;-72
2023/07/22 16:17:58;;;;;;;;;;;;;;;;;;5091450;28;19969;-71
2023/07/22 16:20:25;;;;;;;;;;;;;;;;;;5091249;28;19964;-71
2023/07/22 16:22:52;;;;;;;;;;;;;;;;;;5092407;28;20019;-71
2023/07/22 16:25:19;;;;;;;;;;;;;;;;;;5089565;28;19930;-71
2023/07/22 16:27:46;;;;;;;;;;;;;;;;;;5092421;28;19924;-72
2023/07/22 16:30:13;;;;;;;;;;;;;;;;;;5092129;28;20407;-71
2023/07/22 16:32:42;;;;;;;;;;;;;;;;;;5091018;28;20371;-71
2023/07/22 16:35:10;;;;;;;;;;;;;;;;;;5092367;28;20302;-71
2023/07/22 16:37:37;;;;;;;;;;;;;;;;;;5092607;28;19970;-71
2023/07/22 16:40:04;;;;;;;;;;;;;;;;;;5092396;28;19924;-71
2023/07/22 16:42:31;;;;;;;;;;;;;;;;;;5092387;28;19931;-71
2023/07/22 16:44:58;;;;;;;;;;;;;;;;;;5091622;28;19963;-72